createdAt,value
2017-12-31T07:58:58.204Z,85.00
2017-12-31T08:01:25.687Z,84.60
2017-12-31T08:03:53.169Z,85.30
2017-12-31T08:06:20.735Z,86.00
2017-12-31T08:08:48.226Z,85.50
2017-12-31T08:11:16.554Z,85.40
2017-12-31T08:13:45.641Z,85.40
2017-12-31T08:16:13.174Z,85.40
2017-12-31T08:18:40.661Z,85.40
2017-12-31T08:21:08.147Z,85.10
2017-12-31T08:23:35.656Z,85.50
2017-12-31T08:26:03.105Z,84.30
2017-12-31T08:28:30.599Z,84.20
2017-12-31T08:30:58.063Z,83.90
2017-12-31T08:33:25.621Z,83.90
2017-12-31T08:35:53.110Z,83.50
2017-12-31T08:38:20.594Z,82.70
2017-12-31T08:40:48.845Z,79.70
2017-12-31T08:43:16.325Z,79.70
2017-12-31T08:45:44.562Z,79.90
2017-12-31T08:48:12.026Z,79.90
2017-12-31T08:50:39.528Z,79.70
2017-12-31T08:53:06.999Z,79.60
2017-12-31T08:55:34.488Z,80.50
2017-12-31T08:58:01.978Z,80.20
2017-12-31T09:00:29.450Z,78.90
2017-12-31T09:02:57.717Z,76.50
2017-12-31T09:05:25.219Z,76.50
2017-12-31T09:07:52.717Z,75.50
2017-12-31T09:10:20.223Z,75.20
2017-12-31T09:12:47.731Z,76.50
2017-12-31T09:15:15.226Z,74.40
2017-12-31T09:17:43.501Z,76.10
2017-12-31T09:20:12.589Z,73.50
2017-12-31T09:22:40.042Z,73.50
2017-12-31T09:25:08.290Z,71.90
2017-12-31T09:27:35.778Z,71.90
2017-12-31T09:30:03.304Z,69.20
2017-12-31T09:32:30.761Z,69.30
2017-12-31T09:34:58.248Z,68.00
2017-12-31T09:37:25.734Z,71.20
2017-12-31T09:39:53.201Z,71.10
2017-12-31T09:42:20.710Z,72.20
2017-12-31T09:44:48.186Z,69.50
2017-12-31T09:47:16.428Z,71.40
2017-12-31T09:49:43.952Z,71.40
2017-12-31T09:52:11.408Z,70.10
2017-12-31T09:54:38.907Z,71.90
2017-12-31T09:57:06.387Z,72.50
2017-12-31T09:59:34.659Z,72.40
2017-12-31T10:02:02.887Z,73.30
2017-12-31T10:04:30.531Z,73.30
2017-12-31T10:06:58.769Z,69.00
2017-12-31T10:09:26.293Z,69.00
2017-12-31T10:11:54.598Z,69.60
2017-12-31T10:14:22.089Z,70.30
2017-12-31T10:16:50.366Z,70.80
2017-12-31T10:19:18.614Z,72.10
2017-12-31T10:21:46.085Z,72.00
2017-12-31T10:24:13.588Z,70.00
2017-12-31T10:26:41.077Z,71.60
2017-12-31T10:29:08.571Z,72.20
2017-12-31T10:31:36.041Z,72.50
2017-12-31T10:34:04.326Z,70.40
2017-12-31T10:36:31.818Z,70.10
2017-12-31T10:38:59.327Z,69.00
2017-12-31T10:41:26.808Z,69.70
2017-12-31T10:43:54.336Z,68.60
2017-12-31T10:46:21.842Z,69.30
2017-12-31T10:48:49.305Z,68.80
2017-12-31T10:51:16.808Z,71.60
2017-12-31T10:53:44.319Z,70.50
2017-12-31T10:56:11.785Z,68.40
2017-12-31T10:58:39.298Z,70.60
2017-12-31T11:01:07.526Z,72.20
2017-12-31T11:03:34.990Z,72.20
2017-12-31T11:06:02.482Z,71.40
2017-12-31T11:08:29.998Z,69.70
2017-12-31T11:10:57.472Z,71.40
2017-12-31T11:13:24.954Z,72.50
2017-12-31T11:15:52.465Z,70.70
2017-12-31T11:18:19.953Z,70.00
2017-12-31T11:20:47.445Z,70.80
2017-12-31T11:23:15.689Z,69.70
2017-12-31T11:25:43.148Z,69.60
2017-12-31T11:28:10.657Z,70.80
2017-12-31T11:30:38.932Z,69.90
2017-12-31T11:33:07.198Z,68.60
2017-12-31T11:35:35.422Z,69.80
2017-12-31T11:38:02.918Z,69.70
2017-12-31T11:40:31.157Z,70.30
2017-12-31T11:42:58.637Z,70.30
2017-12-31T11:45:26.149Z,68.30
2017-12-31T11:47:53.628Z,70.10
2017-12-31T11:50:21.092Z,69.50
2017-12-31T11:52:48.583Z,70.90
2017-12-31T11:55:16.035Z,70.50
2017-12-31T11:57:44.356Z,70.40
2017-12-31T12:00:11.853Z,70.40
2017-12-31T12:02:39.337Z,71.50
2017-12-31T12:05:07.598Z,71.30
2017-12-31T12:07:35.095Z,71.20
2017-12-31T12:10:03.386Z,70.90
2017-12-31T12:12:30.889Z,70.90
2017-12-31T12:14:58.414Z,72.10
2017-12-31T12:17:25.927Z,72.10
2017-12-31T12:19:54.918Z,71.40
2017-12-31T12:22:22.406Z,71.40
2017-12-31T12:24:49.990Z,71.70
2017-12-31T12:27:17.515Z,70.10
2017-12-31T12:29:45.776Z,68.30
2017-12-31T12:32:13.262Z,68.30
2017-12-31T12:34:41.525Z,67.90
2017-12-31T12:37:09.769Z,67.80
2017-12-31T12:39:37.293Z,67.80
2017-12-31T12:42:04.762Z,69.20
2017-12-31T12:44:32.230Z,67.60
2017-12-31T12:46:59.874Z,67.00
2017-12-31T12:49:27.360Z,68.80
2017-12-31T12:51:54.858Z,68.50
2017-12-31T12:54:23.090Z,68.90
2017-12-31T12:56:50.562Z,68.80
2017-12-31T12:59:18.081Z,67.40
2017-12-31T13:01:45.595Z,66.50
2017-12-31T13:04:13.132Z,67.20
2017-12-31T13:06:40.609Z,67.40
2017-12-31T13:09:08.068Z,68.90
2017-12-31T13:11:35.586Z,66.50
2017-12-31T13:14:03.059Z,66.50
2017-12-31T13:16:30.596Z,66.40
2017-12-31T13:18:58.054Z,68.60
2017-12-31T13:21:25.547Z,67.00
2017-12-31T13:23:53.043Z,67.80
2017-12-31T13:26:21.310Z,66.50
2017-12-31T13:28:49.657Z,67.50
2017-12-31T13:31:17.187Z,67.40
2017-12-31T13:33:44.645Z,66.90
2017-12-31T13:36:12.193Z,69.10
2017-12-31T13:38:39.689Z,67.10
2017-12-31T13:41:07.214Z,67.00
2017-12-31T13:43:34.718Z,64.90
2017-12-31T13:46:02.226Z,64.80
2017-12-31T13:48:29.698Z,65.50
2017-12-31T13:50:57.145Z,67.10
2017-12-31T13:53:24.661Z,61.90
2017-12-31T13:55:52.134Z,66.10
2017-12-31T13:58:19.643Z,60.80
2017-12-31T14:00:47.090Z,56.10
2017-12-31T14:03:14.567Z,60.00
2017-12-31T14:05:42.068Z,51.10
2017-12-31T14:08:10.322Z,50.60
2017-12-31T14:10:37.806Z,50.10
2017-12-31T14:13:06.058Z,50.00
2017-12-31T14:15:33.559Z,49.60
2017-12-31T14:18:01.057Z,47.90
2017-12-31T14:20:28.553Z,47.50
2017-12-31T14:22:56.813Z,44.50
2017-12-31T14:25:24.285Z,44.20
2017-12-31T14:27:52.566Z,42.50
2017-12-31T14:30:20.038Z,42.00
2017-12-31T14:32:48.414Z,35.00
2017-12-31T14:35:16.680Z,34.60
2017-12-31T14:37:44.183Z,34.60
2017-12-31T14:40:11.682Z,36.80
2017-12-31T14:42:39.136Z,36.70
2017-12-31T14:45:06.670Z,34.70
2017-12-31T14:47:34.137Z,36.00
2017-12-31T14:50:01.619Z,34.40
2017-12-31T14:52:29.149Z,33.30
2017-12-31T14:54:56.642Z,35.60
2017-12-31T14:57:24.118Z,34.60
2017-12-31T14:59:52.382Z,36.80
2017-12-31T15:02:20.621Z,36.80
2017-12-31T15:04:48.140Z,37.40
2017-12-31T15:07:16.392Z,41.30
2017-12-31T15:09:43.872Z,41.40
2017-12-31T15:12:12.147Z,49.20
2017-12-31T15:14:40.430Z,42.40
2017-12-31T15:17:08.691Z,39.80
2017-12-31T15:19:36.945Z,37.10
2017-12-31T15:22:04.426Z,37.10
2017-12-31T15:24:32.681Z,36.00
2017-12-31T15:27:00.300Z,35.80
2017-12-31T15:29:27.775Z,35.30
2017-12-31T15:31:55.270Z,38.90
2017-12-31T15:34:22.762Z,74.30
2017-12-31T15:36:50.234Z,64.90
2017-12-31T15:39:17.718Z,62.50
2017-12-31T15:41:45.217Z,61.70
2017-12-31T15:44:13.448Z,62.30
2017-12-31T15:46:46.838Z,62.20
2017-12-31T15:49:18.291Z,62.60
2017-12-31T15:51:45.793Z,63.30
2017-12-31T15:54:14.030Z,64.50
2017-12-31T15:56:41.529Z,64.50
2017-12-31T15:59:09.757Z,65.80
2017-12-31T16:01:37.263Z,65.80
2017-12-31T16:04:04.738Z,66.30
2017-12-31T16:06:33.010Z,67.40
2017-12-31T16:09:01.239Z,70.70
2017-12-31T16:11:28.769Z,70.70
2017-12-31T16:13:56.238Z,72.30
2017-12-31T16:16:23.714Z,70.20
2017-12-31T16:18:51.205Z,71.70
2017-12-31T16:21:18.731Z,71.80
2017-12-31T16:23:46.187Z,71.90
2017-12-31T16:26:13.713Z,73.50
2017-12-31T16:28:41.931Z,73.30
2017-12-31T16:31:09.397Z,73.30
2017-12-31T16:33:36.890Z,73.70
2017-12-31T16:36:05.138Z,73.70
2017-12-31T16:38:33.573Z,73.70
2017-12-31T16:41:01.041Z,75.30
2017-12-31T16:43:28.541Z,75.20
2017-12-31T16:45:57.570Z,75.30
2017-12-31T16:48:25.790Z,86.30
2017-12-31T16:50:53.285Z,86.30
2017-12-31T16:53:21.506Z,77.50
2017-12-31T16:55:49.034Z,77.50
2017-12-31T16:58:16.530Z,87.60
2017-12-31T17:00:43.994Z,88.80
2017-12-31T17:03:11.511Z,89.50
2017-12-31T17:05:39.742Z,90.00
2017-12-31T17:08:07.224Z,89.90
2017-12-31T17:10:34.713Z,88.70
2017-12-31T17:13:02.242Z,89.60
2017-12-31T17:15:29.710Z,89.40
2017-12-31T17:17:57.974Z,90.30
2017-12-31T17:20:25.434Z,90.30
2017-12-31T17:22:53.700Z,88.60
2017-12-31T17:25:21.214Z,88.60
2017-12-31T17:27:48.698Z,88.70
2017-12-31T17:30:16.165Z,89.30
2017-12-31T17:32:43.670Z,89.50
2017-12-31T17:35:11.150Z,90.10
2017-12-31T17:37:38.671Z,90.20
2017-12-31T17:40:06.922Z,90.80
2017-12-31T17:42:34.422Z,90.80
2017-12-31T17:45:01.933Z,90.80
2017-12-31T17:47:30.407Z,90.70
2017-12-31T17:49:57.926Z,90.90
2017-12-31T17:52:25.419Z,90.50
2017-12-31T17:54:53.413Z,90.60
2017-12-31T17:57:20.925Z,90.80
2017-12-31T17:59:48.393Z,90.90
2017-12-31T18:02:15.858Z,91.00
2017-12-31T18:04:43.357Z,91.00
2017-12-31T18:07:10.847Z,90.80
2017-12-31T18:09:38.378Z,90.80
2017-12-31T18:12:05.838Z,90.80
2017-12-31T18:14:34.119Z,91.30
2017-12-31T18:17:02.385Z,91.30
2017-12-31T18:19:29.923Z,91.30
2017-12-31T18:21:57.402Z,91.10
2017-12-31T18:24:24.900Z,91.20
2017-12-31T18:26:52.389Z,91.10
2017-12-31T18:29:19.869Z,91.30
2017-12-31T18:31:47.372Z,91.30
2017-12-31T18:34:14.897Z,90.90
2017-12-31T18:36:42.372Z,90.90
2017-12-31T18:39:10.639Z,91.10
2017-12-31T18:41:38.101Z,91.10
2017-12-31T18:44:06.373Z,90.90
2017-12-31T18:46:34.622Z,91.30
2017-12-31T18:49:02.114Z,91.30
2017-12-31T18:51:30.360Z,91.30
2017-12-31T18:53:57.877Z,91.30
2017-12-31T18:56:25.332Z,91.40
2017-12-31T18:58:52.794Z,91.20
2017-12-31T19:01:20.276Z,91.30
2017-12-31T19:03:47.760Z,91.30
2017-12-31T19:06:15.253Z,91.50
2017-12-31T19:08:43.469Z,91.30
2017-12-31T19:11:10.970Z,91.30
2017-12-31T19:13:38.468Z,91.30
2017-12-31T19:16:05.966Z,91.40
2017-12-31T19:18:33.465Z,91.30
2017-12-31T19:21:01.714Z,91.10
2017-12-31T19:23:29.214Z,91.10
2017-12-31T19:25:56.702Z,91.30
2017-12-31T19:28:24.186Z,91.20
2017-12-31T19:30:51.665Z,91.20
2017-12-31T19:33:19.159Z,90.90
2017-12-31T19:35:46.635Z,90.70
2017-12-31T19:38:14.102Z,90.70
2017-12-31T19:40:41.637Z,90.50
2017-12-31T19:43:09.103Z,90.60
2017-12-31T19:45:36.597Z,91.00
2017-12-31T19:48:04.110Z,91.10
2017-12-31T19:50:31.577Z,91.10
2017-12-31T19:52:59.148Z,91.10
2017-12-31T19:55:26.610Z,91.30
2017-12-31T19:57:54.085Z,91.40
2017-12-31T20:00:21.605Z,91.50
2017-12-31T20:02:49.075Z,91.30
2017-12-31T20:05:16.599Z,91.30
2017-12-31T20:07:44.838Z,91.30
2017-12-31T20:10:13.113Z,91.40
2017-12-31T20:12:40.617Z,91.40
2017-12-31T20:15:08.850Z,91.30
2017-12-31T20:17:36.373Z,91.30
2017-12-31T20:20:03.846Z,91.60
2017-12-31T20:22:31.341Z,91.40
2017-12-31T20:24:58.844Z,91.20
2017-12-31T20:27:27.082Z,91.30
2017-12-31T20:29:55.411Z,90.90
2017-12-31T20:32:23.646Z,91.20
2017-12-31T20:34:51.910Z,91.20
2017-12-31T20:37:19.386Z,91.20
2017-12-31T20:39:47.658Z,91.30
2017-12-31T20:42:15.933Z,91.20
2017-12-31T20:44:43.409Z,91.20
2017-12-31T20:47:10.906Z,91.40
2017-12-31T20:49:38.388Z,91.30
2017-12-31T20:52:05.906Z,91.60
2017-12-31T20:54:33.379Z,91.60
2017-12-31T20:57:00.923Z,91.60
2017-12-31T20:59:28.438Z,91.40
2017-12-31T21:01:55.892Z,91.30
2017-12-31T21:04:23.394Z,91.40
2017-12-31T21:06:50.846Z,91.40
2017-12-31T21:09:18.371Z,91.40
2017-12-31T21:11:45.850Z,91.40
2017-12-31T21:14:14.086Z,91.20
2017-12-31T21:16:41.591Z,91.20
2017-12-31T21:19:09.871Z,91.20
2017-12-31T21:21:37.355Z,91.20
2017-12-31T21:24:04.821Z,91.40
2017-12-31T21:26:32.349Z,91.20
2017-12-31T21:28:59.821Z,91.50
2017-12-31T21:31:27.277Z,91.60
2017-12-31T21:33:54.787Z,91.70
2017-12-31T21:36:22.408Z,91.80
2017-12-31T21:38:49.958Z,91.60
2017-12-31T21:41:17.415Z,91.70
2017-12-31T21:43:44.870Z,91.40
2017-12-31T21:46:12.398Z,91.90
2017-12-31T21:48:40.634Z,91.80
2017-12-31T21:51:08.139Z,91.80
2017-12-31T21:53:36.367Z,91.80
2017-12-31T21:56:03.850Z,91.80
2017-12-31T21:58:31.372Z,91.70
2017-12-31T22:00:58.860Z,91.80
2017-12-31T22:03:26.337Z,91.90
2017-12-31T22:05:53.842Z,91.90
2017-12-31T22:08:21.338Z,91.90
2017-12-31T22:10:48.813Z,92.00
2017-12-31T22:13:17.098Z,91.80
2017-12-31T22:15:45.344Z,91.90
2017-12-31T22:18:12.793Z,91.90
2017-12-31T22:20:40.299Z,91.90
2017-12-31T22:23:08.549Z,91.90
2017-12-31T22:25:36.048Z,91.90
2017-12-31T22:28:03.518Z,91.80
2017-12-31T22:30:31.009Z,91.80
2017-12-31T22:32:58.534Z,91.80
2017-12-31T22:35:25.960Z,91.70
2017-12-31T22:37:54.860Z,91.90
2017-12-31T22:40:23.100Z,91.80
2017-12-31T22:42:51.349Z,91.90
2017-12-31T22:45:18.833Z,91.80
2017-12-31T22:47:46.286Z,91.60
2017-12-31T22:50:13.788Z,91.50
2017-12-31T22:52:42.007Z,91.30
2017-12-31T22:55:09.557Z,91.30
2017-12-31T22:57:37.764Z,90.90
2017-12-31T23:00:05.222Z,90.90
2017-12-31T23:02:32.719Z,90.60
2017-12-31T23:05:00.945Z,89.60
2017-12-31T23:07:28.481Z,89.60
2017-12-31T23:09:55.966Z,89.00
2017-12-31T23:12:23.465Z,88.50
2017-12-31T23:14:51.730Z,87.70
2017-12-31T23:17:19.253Z,87.60
2017-12-31T23:19:46.722Z,87.20
2017-12-31T23:22:14.187Z,87.60
2017-12-31T23:24:41.724Z,88.40
2017-12-31T23:27:09.341Z,88.70
2017-12-31T23:29:36.786Z,88.60
2017-12-31T23:32:04.280Z,87.30
2017-12-31T23:34:31.748Z,88.10
2017-12-31T23:36:59.230Z,88.60
2017-12-31T23:39:26.695Z,89.00
2017-12-31T23:41:54.189Z,88.40
2017-12-31T23:44:22.446Z,87.40
2017-12-31T23:46:49.961Z,87.40
2017-12-31T23:49:17.442Z,86.60
2017-12-31T23:51:44.934Z,87.40
2017-12-31T23:54:13.174Z,87.50
2017-12-31T23:56:40.660Z,87.50
2017-12-31T23:59:08.175Z,87.00
